Time;durP1;ratioP1;P1;durP2;ratioP2;P2;SDS_P1;SDS_P2;PMS_P1;PMS_P2;Temp;Humidity;BMP_temperature;BMP_pressure;BME280_temperature;BME280_humidity;BME280_pressure;Samples;Min_cycle;Max_cycle;Signal;HPM_P1;HPM_P2
2021/05/09 00:00:09;;;;;;;6.07;3.87;;;12.90;64.70;;;;;;5016338;28;20434;-61
2021/05/09 00:02:35;;;;;;;3.93;3.30;;;12.90;64.30;;;;;;5016690;28;20449;-61
2021/05/09 00:05:01;;;;;;;4.20;3.83;;;13.00;64.60;;;;;;5016099;28;20461;-60
2021/05/09 00:07:29;;;;;;;5.53;4.00;;;13.00;64.10;;;;;;5016081;28;20478;-61
2021/05/09 00:09:55;;;;;;;6.20;4.10;;;13.00;64.40;;;;;;5016610;28;20457;-61
2021/05/09 00:12:22;;;;;;;4.07;3.50;;;13.00;63.70;;;;;;5010826;28;20454;-61
2021/05/09 00:14:49;;;;;;;4.20;3.80;;;13.00;63.60;;;;;;4998005;28;20422;-62
2021/05/09 00:17:15;;;;;;;3.70;3.33;;;13.00;64.00;;;;;;4998578;28;20466;-59
2021/05/09 00:19:41;;;;;;;3.47;3.17;;;13.00;64.20;;;;;;4987425;28;20463;-61
2021/05/09 00:22:07;;;;;;;5.33;4.63;;;13.00;64.50;;;;;;4990030;28;20851;-62
2021/05/09 01:44:07;;;;;;;5.37;4.50;;;13.00;69.00;;;;;;5381293;23;20555;-62
2021/05/09 01:46:34;;;;;;;5.80;4.90;;;12.90;69.00;;;;;;4938377;29;20457;-62
2021/05/09 01:49:00;;;;;;;5.47;4.00;;;13.00;69.40;;;;;;4938967;29;20464;-60
2021/05/09 01:51:26;;;;;;;6.00;3.90;;;13.00;69.60;;;;;;4938774;29;20464;-64
2021/05/09 01:53:53;;;;;;;3.97;3.30;;;12.90;69.40;;;;;;4938204;29;20444;-60
2021/05/09 01:56:19;;;;;;;5.60;3.90;;;12.90;69.80;;;;;;4938518;29;20445;-61
2021/05/09 01:58:45;;;;;;;4.37;3.60;;;13.00;69.90;;;;;;4931905;29;20460;-60
2021/05/09 02:01:12;;;;;;;5.20;3.50;;;12.90;69.90;;;;;;4934620;29;20461;-61
2021/05/09 02:03:38;;;;;;;7.17;3.97;;;12.90;70.20;;;;;;4934396;29;20452;-60
2021/05/09 02:06:05;;;;;;;4.30;3.60;;;12.90;70.80;;;;;;4934396;29;20484;-61
2021/05/09 02:08:31;;;;;;;4.20;3.30;;;12.90;70.40;;;;;;4934629;29;20453;-61
2021/05/09 02:10:58;;;;;;;5.40;3.50;;;12.80;70.90;;;;;;4934445;29;20457;-60
2021/05/09 02:13:24;;;;;;;4.00;3.53;;;12.80;70.90;;;;;;4933941;29;20906;-62
2021/05/09 02:15:50;;;;;;;7.07;4.10;;;12.80;71.20;;;;;;4934292;29;20444;-60
2021/05/09 02:18:17;;;;;;;4.20;3.67;;;12.80;71.60;;;;;;4934388;29;20495;-62
2021/05/09 02:20:43;;;;;;;4.53;3.67;;;12.80;71.50;;;;;;4934464;29;20456;-61
2021/05/09 02:23:11;;;;;;;5.23;3.63;;;12.80;71.70;;;;;;4934170;29;20979;-60
2021/05/09 02:25:37;;;;;;;5.20;4.27;;;12.80;71.80;;;;;;4934032;29;20961;-62
2021/05/09 02:28:03;;;;;;;3.93;3.17;;;12.80;71.80;;;;;;4934429;29;20484;-60
2021/05/09 02:30:29;;;;;;;4.93;3.33;;;12.80;72.00;;;;;;4934222;29;20781;-61
2021/05/09 02:32:56;;;;;;;5.00;3.80;;;12.80;72.50;;;;;;4934348;29;20460;-60
2021/05/09 02:35:23;;;;;;;4.57;3.83;;;12.80;72.50;;;;;;4934300;29;20460;-60
2021/05/09 02:37:49;;;;;;;4.93;3.33;;;12.80;72.70;;;;;;4927159;29;20456;-62
2021/05/09 02:40:15;;;;;;;6.30;3.57;;;12.90;73.00;;;;;;4917071;29;20520;-62
2021/05/09 02:42:44;;;;;;;5.30;3.50;;;12.90;73.10;;;;;;4917441;29;20539;-59
2021/05/09 02:45:11;;;;;;;4.80;3.60;;;12.90;74.00;;;;;;4915477;29;20972;-62
2021/05/09 02:47:37;;;;;;;6.90;4.47;;;12.80;73.30;;;;;;4915358;29;20488;-60
2021/05/09 02:50:07;;;;;;;4.50;4.10;;;12.80;73.60;;;;;;4915898;29;20535;-63
2021/05/09 02:52:34;;;;;;;5.60;3.83;;;12.80;73.80;;;;;;4915546;29;20446;-60
2021/05/09 02:55:00;;;;;;;4.40;3.50;;;12.80;74.10;;;;;;4915380;29;20450;-61
2021/05/09 02:57:27;;;;;;;3.77;3.33;;;12.80;74.50;;;;;;4915414;29;20453;-61
2021/05/09 02:59:53;;;;;;;3.53;3.20;;;12.80;74.80;;;;;;4915231;29;20453;-61
2021/05/09 03:02:19;;;;;;;4.07;3.63;;;12.70;74.60;;;;;;4915418;29;20481;-61
2021/05/09 03:04:45;;;;;;;4.10;3.63;;;12.70;75.20;;;;;;4915022;29;20485;-61
2021/05/09 03:07:12;;;;;;;4.40;3.60;;;12.80;75.40;;;;;;4914914;29;20473;-61
2021/05/09 03:09:39;;;;;;;5.27;3.80;;;12.80;75.60;;;;;;4915313;29;20460;-61
2021/05/09 03:12:06;;;;;;;4.37;3.40;;;12.80;75.40;;;;;;4914476;29;20454;-61
2021/05/09 03:14:32;;;;;;;9.73;3.73;;;12.70;75.70;;;;;;4914846;29;20446;-62
2021/05/09 03:16:58;;;;;;;4.47;3.60;;;12.70;76.50;;;;;;4915988;29;20461;-60
2021/05/09 03:19:25;;;;;;;3.60;3.20;;;12.60;76.80;;;;;;4914799;29;20453;-60
2021/05/09 03:21:51;;;;;;;4.73;3.80;;;12.70;77.40;;;;;;4914552;29;20895;-60
2021/05/09 03:24:17;;;;;;;5.10;3.43;;;12.60;77.50;;;;;;4915269;29;20469;-60
2021/05/09 03:26:44;;;;;;;4.03;3.40;;;12.50;77.90;;;;;;4917275;29;20515;-63
2021/05/09 03:29:10;;;;;;;4.77;3.80;;;12.50;78.40;;;;;;4917701;29;20454;-63
2021/05/09 03:31:36;;;;;;;4.00;3.50;;;12.50;78.70;;;;;;4917932;29;20457;-62
2021/05/09 03:34:03;;;;;;;4.40;4.00;;;12.40;79.40;;;;;;4936026;29;20864;-62
2021/05/09 03:36:30;;;;;;;4.87;3.40;;;12.40;79.80;;;;;;4936643;29;20460;-61
2021/05/09 03:38:56;;;;;;;4.83;3.53;;;12.40;80.00;;;;;;4936911;29;20449;-61
2021/05/09 03:41:24;;;;;;;5.10;3.63;;;12.40;80.60;;;;;;4936715;29;20452;-61
2021/05/09 03:43:51;;;;;;;5.30;3.53;;;12.30;80.90;;;;;;4936558;29;20476;-61
2021/05/09 03:46:18;;;;;;;4.03;3.63;;;12.30;81.80;;;;;;4936490;29;20806;-61
2021/05/09 03:48:44;;;;;;;4.10;3.50;;;12.30;81.70;;;;;;4936415;29;20991;-62
2021/05/09 03:51:10;;;;;;;4.60;3.40;;;12.30;82.20;;;;;;4936455;29;20933;-61
2021/05/09 03:53:37;;;;;;;4.30;3.50;;;12.30;83.00;;;;;;4936571;29;20463;-61
2021/05/09 03:56:03;;;;;;;4.10;3.63;;;12.30;83.20;;;;;;4936657;29;20440;-61
2021/05/09 03:58:30;;;;;;;4.50;3.37;;;12.30;83.90;;;;;;4936586;29;20453;-61
2021/05/09 04:00:57;;;;;;;6.83;5.13;;;12.20;84.20;;;;;;4936711;29;20456;-61
2021/05/09 04:03:25;;;;;;;4.90;3.93;;;12.20;84.50;;;;;;4936060;29;20465;-62
2021/05/09 04:05:52;;;;;;;4.90;3.70;;;12.20;85.20;;;;;;4936836;29;20526;-63
2021/05/09 04:08:19;;;;;;;3.60;3.30;;;12.20;85.80;;;;;;4937187;29;20460;-62
2021/05/09 04:10:46;;;;;;;4.73;3.43;;;12.20;86.20;;;;;;4936537;29;20453;-62
2021/05/09 04:13:12;;;;;;;3.67;3.20;;;12.20;87.00;;;;;;4936429;29;20514;-60
2021/05/09 04:15:38;;;;;;;4.60;3.90;;;12.30;87.10;;;;;;4936097;29;20448;-63
2021/05/09 04:18:05;;;;;;;5.03;4.07;;;12.30;87.00;;;;;;4936315;29;20449;-62
2021/05/09 04:20:32;;;;;;;4.13;3.63;;;12.30;87.30;;;;;;4936053;29;20453;-61
2021/05/09 04:23:08;;;;;;;5.10;3.80;;;12.30;87.70;;;;;;4935964;29;20936;-61
2021/05/09 04:25:35;;;;;;;3.90;3.60;;;12.30;88.10;;;;;;4936094;29;20488;-62
2021/05/09 04:28:01;;;;;;;4.87;3.77;;;12.40;88.10;;;;;;4935998;29;20471;-61
2021/05/09 04:30:27;;;;;;;4.07;3.40;;;12.30;88.20;;;;;;4936045;29;20456;-61
2021/05/09 04:32:58;;;;;;;3.83;3.43;;;12.30;88.60;;;;;;4936167;29;20457;-61
2021/05/09 04:35:25;;;;;;;4.93;3.70;;;12.40;89.10;;;;;;4936111;29;20491;-61
2021/05/09 04:37:51;;;;;;;4.67;4.10;;;12.30;89.30;;;;;;4935705;29;20457;-60
2021/05/09 04:40:18;;;;;;;4.43;3.77;;;12.30;89.70;;;;;;4935723;29;20917;-61
2021/05/09 04:42:44;;;;;;;4.13;3.63;;;12.30;89.80;;;;;;4935910;29;20480;-54
2021/05/09 04:45:11;;;;;;;4.20;3.43;;;12.40;90.10;;;;;;4935575;29;20484;-61
2021/05/09 04:47:37;;;;;;;5.10;3.60;;;12.50;90.10;;;;;;4935901;29;20464;-61
2021/05/09 04:50:05;;;;;;;3.73;3.37;;;12.50;89.90;;;;;;4935849;29;20480;-62
2021/05/09 04:52:32;;;;;;;4.60;3.50;;;12.40;90.20;;;;;;4936455;29;20456;-61
2021/05/09 04:54:58;;;;;;;5.93;4.23;;;12.50;90.20;;;;;;4934873;29;20808;-60
2021/05/09 04:57:24;;;;;;;3.87;3.47;;;12.50;90.50;;;;;;4936339;29;20452;-59
2021/05/09 04:59:50;;;;;;;3.80;3.43;;;12.50;90.50;;;;;;4940084;29;20482;-61
2021/05/09 05:02:16;;;;;;;4.00;3.40;;;12.50;90.70;;;;;;4958368;29;20479;-61
2021/05/09 05:04:43;;;;;;;5.23;3.90;;;12.50;91.40;;;;;;4958994;29;20492;-61
2021/05/09 07:20:16;;;;;;;3.00;2.60;;;17.00;89.30;;;;;;5759172;23;20503;-61
2021/05/09 07:22:51;;;;;;;3.07;2.77;;;18.50;85.10;;;;;;4965259;28;20448;-63
2021/05/09 07:25:18;;;;;;;6.30;2.30;;;19.50;79.50;;;;;;4964761;28;20467;-62
2021/05/09 07:27:44;;;;;;;3.73;2.60;;;19.80;76.50;;;;;;4968321;28;20792;-62
2021/05/09 07:30:12;;;;;;;4.10;2.50;;;19.70;76.00;;;;;;4968770;28;20459;-62
2021/05/09 07:32:38;;;;;;;2.60;2.37;;;19.50;76.00;;;;;;4968554;28;20451;-62
2021/05/09 07:35:04;;;;;;;3.60;2.87;;;19.40;75.90;;;;;;4969668;28;20458;-62
2021/05/09 07:37:31;;;;;;;2.93;2.43;;;19.50;75.60;;;;;;4970046;28;20467;-61
2021/05/09 07:40:01;;;;;;;2.53;2.23;;;20.40;74.20;;;;;;4969044;28;20474;-62
2021/05/09 07:42:27;;;;;;;3.37;2.80;;;21.70;70.80;;;;;;4966734;28;20444;-62
2021/05/09 07:44:56;;;;;;;6.60;2.50;;;23.20;67.30;;;;;;4965626;28;20480;-61
2021/05/09 07:47:25;;;;;;;5.83;2.53;;;24.70;62.20;;;;;;4964138;28;20454;-62
2021/05/09 07:49:51;;;;;;;3.60;2.73;;;25.40;58.30;;;;;;4963373;28;20443;-62
2021/05/09 07:52:21;;;;;;;3.00;2.70;;;26.00;56.20;;;;;;4963375;28;20448;-62
2021/05/09 07:54:50;;;;;;;2.70;2.20;;;26.30;54.10;;;;;;4963422;28;20450;-63
2021/05/09 07:57:17;;;;;;;2.23;2.03;;;26.20;53.20;;;;;;4962083;28;20473;-62
2021/05/09 07:59:43;;;;;;;4.17;2.50;;;26.50;53.00;;;;;;4962208;28;20460;-62
2021/05/09 08:02:10;;;;;;;3.80;2.57;;;27.00;51.20;;;;;;4962080;28;20551;-63
2021/05/09 08:04:36;;;;;;;2.43;2.03;;;27.50;50.70;;;;;;4962071;28;20483;-62
2021/05/09 08:07:05;;;;;;;2.27;2.03;;;28.10;48.90;;;;;;4962326;28;20473;-62
2021/05/09 08:09:31;;;;;;;4.73;2.87;;;28.70;47.60;;;;;;4961864;28;20463;-62
2021/05/09 08:11:58;;;;;;;2.93;2.37;;;29.30;46.50;;;;;;4960983;28;20454;-62
2021/05/09 08:14:26;;;;;;;3.03;2.70;;;29.70;45.30;;;;;;4961039;28;20782;-62
2021/05/09 08:16:53;;;;;;;2.60;2.40;;;29.90;44.80;;;;;;4960957;28;20451;-63
2021/05/09 08:19:19;;;;;;;3.97;2.40;;;30.00;44.00;;;;;;4961462;28;20467;-62
2021/05/09 08:21:45;;;;;;;3.03;2.73;;;30.40;43.90;;;;;;4960539;28;20487;-62
2021/05/09 08:24:11;;;;;;;2.93;2.67;;;31.20;42.40;;;;;;4960759;28;20448;-62
2021/05/09 08:26:37;;;;;;;3.20;2.90;;;31.20;41.80;;;;;;4961091;28;20898;-61
2021/05/09 08:29:06;;;;;;;2.60;1.77;;;31.90;41.40;;;;;;4960274;28;20804;-62
2021/05/09 08:31:32;;;;;;;2.27;2.07;;;31.90;40.10;;;;;;4954275;28;20472;-63
2021/05/09 08:34:01;;;;;;;2.77;2.20;;;31.80;40.20;;;;;;4976155;28;20515;-63
2021/05/09 08:36:27;;;;;;;3.03;2.60;;;31.20;40.30;;;;;;4970169;28;20437;-62
2021/05/09 08:38:53;;;;;;;3.23;2.27;;;31.30;40.40;;;;;;4939382;28;20941;-61
2021/05/09 08:41:20;;;;;;;3.10;2.80;;;31.80;39.70;;;;;;4946617;28;20487;-61
2021/05/09 08:43:48;;;;;;;4.13;2.80;;;31.30;40.10;;;;;;4936240;29;20449;-63
2021/05/09 08:46:15;;;;;;;2.47;2.00;;;31.80;39.70;;;;;;4950594;29;20820;-62
2021/05/09 08:48:43;;;;;;;5.63;2.67;;;32.10;38.90;;;;;;4955015;28;20455;-63
2021/05/09 08:51:09;;;;;;;12.03;4.10;;;32.20;39.20;;;;;;4954920;28;20455;-62
2021/05/09 08:53:35;;;;;;;3.60;2.47;;;32.60;38.70;;;;;;4954967;28;20467;-63
2021/05/09 08:56:02;;;;;;;4.33;2.30;;;32.70;38.30;;;;;;4955310;28;20474;-63
2021/05/09 08:58:28;;;;;;;2.40;1.80;;;33.10;38.10;;;;;;4939724;28;20545;-62
2021/05/09 09:00:54;;;;;;;2.27;1.83;;;33.10;37.10;;;;;;4936099;29;20963;-62
2021/05/09 09:03:22;;;;;;;4.60;2.10;;;33.10;36.90;;;;;;4935724;28;20483;-63
2021/05/09 09:05:50;;;;;;;2.40;1.90;;;33.20;36.90;;;;;;4935770;29;20496;-62
2021/05/09 09:08:17;;;;;;;2.17;1.77;;;33.50;37.50;;;;;;4935921;29;20449;-62
2021/05/09 09:10:45;;;;;;;2.10;1.90;;;33.40;38.00;;;;;;4935689;29;20449;-63
2021/05/09 09:13:26;;;;;;;2.13;1.93;;;33.70;36.30;;;;;;4935878;29;20928;-62
2021/05/09 09:15:54;;;;;;;2.90;2.03;;;32.70;37.00;;;;;;4935528;28;20452;-61
2021/05/09 09:18:33;;;;;;;2.23;1.80;;;32.80;37.60;;;;;;4935469;28;20458;-63
2021/05/09 09:21:19;;;;;;;2.33;2.10;;;33.00;36.90;;;;;;4935406;28;20480;-62
2021/05/09 09:23:47;;;;;;;4.00;2.67;;;33.50;37.00;;;;;;4934411;28;20444;-63
2021/05/09 09:26:27;;;;;;;1.83;1.70;;;33.70;36.20;;;;;;4935479;29;20485;-62
2021/05/09 09:28:54;;;;;;;2.07;1.63;;;34.20;35.20;;;;;;4935273;29;21068;-62
2021/05/09 09:31:38;;;;;;;2.27;1.63;;;33.90;35.10;;;;;;4935300;29;20449;-62
2021/05/09 09:34:06;;;;;;;1.83;1.73;;;33.70;35.50;;;;;;4935254;28;20480;-61
2021/05/09 09:36:32;;;;;;;2.30;1.60;;;33.70;35.50;;;;;;4934882;28;20449;-62
2021/05/09 09:38:58;;;;;;;4.30;2.20;;;33.40;35.60;;;;;;4934751;29;20460;-62
2021/05/09 09:41:25;;;;;;;2.43;2.10;;;33.10;35.60;;;;;;4935094;29;20465;-62
2021/05/09 09:44:03;;;;;;;3.67;2.40;;;32.60;36.80;;;;;;4934972;28;20449;-62
2021/05/09 09:46:31;;;;;;;2.67;1.87;;;32.90;36.30;;;;;;4934891;28;20488;-62
2021/05/09 09:48:57;;;;;;;3.27;1.73;;;32.90;36.40;;;;;;4934807;29;20436;-61
2021/05/09 09:51:26;;;;;;;3.03;1.83;;;32.90;37.00;;;;;;4934948;28;20453;-62
2021/05/09 09:53:53;;;;;;;2.27;1.93;;;33.10;37.00;;;;;;4934628;29;20460;-61
2021/05/09 09:56:20;;;;;;;2.90;1.70;;;33.30;36.20;;;;;;4934807;29;20784;-61
2021/05/09 09:58:53;;;;;;;2.20;2.00;;;33.20;36.70;;;;;;4934825;28;20461;-61
2021/05/09 10:01:24;;;;;;;2.73;2.00;;;33.40;36.80;;;;;;4934415;28;20468;-60
2021/05/09 10:03:55;;;;;;;2.53;2.30;;;33.20;36.50;;;;;;4934840;28;20495;-64
2021/05/09 10:06:23;;;;;;;2.50;2.13;;;32.80;37.20;;;;;;4934446;29;20469;-62
2021/05/09 10:08:50;;;;;;;3.53;2.63;;;33.10;37.10;;;;;;4934544;29;20837;-63
2021/05/09 10:11:17;;;;;;;2.43;1.90;;;33.20;37.00;;;;;;4934644;28;20460;-63
2021/05/09 10:13:45;;;;;;;3.67;1.90;;;33.40;36.70;;;;;;4934421;29;20445;-62
2021/05/09 10:16:11;;;;;;;3.50;2.10;;;33.40;36.90;;;;;;4934545;29;20456;-63
2021/05/09 10:18:39;;;;;;;5.20;2.33;;;33.50;37.40;;;;;;4934475;28;20479;-62
2021/05/09 10:21:06;;;;;;;2.00;1.60;;;33.60;36.80;;;;;;4933986;28;20489;-63
2021/05/09 10:23:32;;;;;;;3.67;1.70;;;32.90;36.80;;;;;;4934157;29;20559;-63
2021/05/09 10:26:00;;;;;;;2.00;1.63;;;32.90;37.20;;;;;;4934150;28;20500;-63
2021/05/09 10:28:36;;;;;;;1.77;1.57;;;32.90;37.30;;;;;;4934050;29;20917;-63
2021/05/09 10:31:03;;;;;;;3.67;2.10;;;32.60;37.40;;;;;;4934143;29;20467;-63
2021/05/09 10:33:43;;;;;;;2.87;1.80;;;32.40;37.80;;;;;;4934745;28;20918;-63
2021/05/09 10:36:30;;;;;;;1.90;1.40;;;31.80;38.20;;;;;;4933932;29;20456;-63
2021/05/09 10:39:12;;;;;;;1.60;1.50;;;31.20;38.70;;;;;;4933911;29;20453;-63
2021/05/09 10:42:13;;;;;;;1.57;1.47;;;30.70;40.50;;;;;;4934146;29;20469;-64
2021/05/09 10:44:41;;;;;;;2.07;1.87;;;30.20;39.90;;;;;;4932325;28;20467;-64
2021/05/09 10:47:13;;;;;;;2.03;1.83;;;29.90;40.60;;;;;;4933939;29;20444;-64
2021/05/09 10:50:13;;;;;;;3.37;2.10;;;29.40;40.80;;;;;;4934061;29;20456;-62
2021/05/09 10:52:40;;;;;;;5.40;1.60;;;28.80;41.70;;;;;;4934112;29;20463;-64
2021/05/09 10:55:46;;;;;;;1.90;1.70;;;28.40;43.30;;;;;;4933870;29;20475;-63
2021/05/09 10:58:15;;;;;;;2.60;2.03;;;28.30;44.20;;;;;;4933818;29;20469;-65
2021/05/09 11:01:13;;;;;;;6.33;3.20;;;28.30;43.80;;;;;;4934060;29;20460;-62
2021/05/09 11:03:52;;;;;;;20.70;14.53;;;28.20;44.10;;;;;;4933775;29;20539;-63
2021/05/09 11:06:19;;;;;;;3.17;2.27;;;28.30;44.00;;;;;;4933813;29;20476;-64
2021/05/09 11:08:56;;;;;;;2.33;1.70;;;28.30;44.30;;;;;;4933965;29;20514;-63
2021/05/09 11:12:01;;;;;;;2.00;1.80;;;28.40;42.50;;;;;;4933611;28;20456;-64
2021/05/09 11:14:38;;;;;;;2.70;1.67;;;28.10;42.40;;;;;;4933910;28;20460;-64
2021/05/09 11:17:09;;;;;;;1.60;1.40;;;27.80;43.10;;;;;;4933707;28;20437;-64
2021/05/09 11:19:37;;;;;;;2.23;2.03;;;27.80;44.00;;;;;;4933722;29;20523;-63
2021/05/09 11:22:04;;;;;;;2.30;1.60;;;27.70;43.00;;;;;;4933524;29;20484;-63
2021/05/09 11:24:32;;;;;;;1.70;1.40;;;27.50;42.90;;;;;;4933619;28;20465;-64
2021/05/09 11:27:00;;;;;;;2.47;1.60;;;27.50;43.00;;;;;;4933615;29;20507;-63
2021/05/09 11:29:28;;;;;;;1.70;1.50;;;27.70;42.90;;;;;;4933268;28;20465;-63
2021/05/09 11:31:55;;;;;;;2.37;1.40;;;27.60;42.60;;;;;;4936546;29;20475;-62
2021/05/09 11:34:23;;;;;;;2.47;1.30;;;27.60;42.50;;;;;;4933257;29;20456;-62
2021/05/09 11:36:51;;;;;;;1.97;1.73;;;27.60;42.90;;;;;;4933386;29;20464;-63
2021/05/09 11:39:19;;;;;;;3.47;2.50;;;27.50;43.50;;;;;;4933555;29;20460;-64
2021/05/09 11:41:50;;;;;;;2.23;1.50;;;27.40;43.40;;;;;;4932614;29;20571;-64
2021/05/09 11:44:17;;;;;;;1.77;1.40;;;27.10;43.70;;;;;;4933510;29;20448;-63
2021/05/09 11:46:43;;;;;;;3.33;2.27;;;26.80;43.80;;;;;;4933288;29;20488;-64
2021/05/09 11:49:17;;;;;;;2.40;1.80;;;26.80;44.20;;;;;;4936416;29;20905;-64
2021/05/09 11:51:51;;;;;;;2.00;1.60;;;26.60;43.20;;;;;;4936705;29;20453;-64
2021/05/09 11:54:18;;;;;;;1.80;1.50;;;26.50;43.30;;;;;;4936346;28;20474;-65
2021/05/09 11:56:54;;;;;;;1.70;1.60;;;26.30;43.80;;;;;;4936281;29;20453;-63
2021/05/09 11:59:39;;;;;;;2.17;1.63;;;26.10;44.10;;;;;;4936486;29;20456;-63
2021/05/09 12:02:20;;;;;;;3.37;1.50;;;26.10;44.00;;;;;;4936326;28;20817;-64
2021/05/09 12:04:52;;;;;;;2.23;1.50;;;26.10;44.50;;;;;;4936142;29;20445;-63
2021/05/09 12:07:21;;;;;;;1.73;1.60;;;26.10;44.20;;;;;;4936323;29;20448;-64
2021/05/09 12:09:52;;;;;;;3.23;1.90;;;26.00;44.20;;;;;;4936700;29;20534;-65
2021/05/09 12:12:18;;;;;;;2.43;2.17;;;26.10;44.80;;;;;;4936333;29;20495;-63
2021/05/09 12:14:47;;;;;;;7.03;1.93;;;26.20;44.10;;;;;;4936137;28;20448;-66
2021/05/09 12:17:24;;;;;;;3.17;2.03;;;26.20;43.80;;;;;;4936248;28;20456;-63
2021/05/09 12:19:52;;;;;;;4.10;1.97;;;26.30;44.20;;;;;;4936054;29;20471;-63
2021/05/09 12:22:19;;;;;;;2.20;1.83;;;26.40;44.40;;;;;;4936084;29;20538;-65
2021/05/09 12:24:50;;;;;;;2.90;1.90;;;26.40;44.50;;;;;;4935833;29;20437;-63
2021/05/09 12:27:17;;;;;;;4.07;3.20;;;26.50;44.60;;;;;;4935907;29;20452;-64
2021/05/09 12:29:45;;;;;;;2.07;1.70;;;26.50;44.00;;;;;;4935777;29;20495;-65
2021/05/09 12:32:24;;;;;;;1.90;1.70;;;26.40;43.90;;;;;;4936149;29;20448;-64
2021/05/09 12:35:15;;;;;;;9.43;1.90;;;26.30;44.30;;;;;;4936023;29;20453;-63
2021/05/09 12:38:01;;;;;;;1.97;1.80;;;26.30;44.40;;;;;;4949516;28;20453;-65
2021/05/09 12:40:30;;;;;;;2.23;1.80;;;26.40;44.10;;;;;;4935703;29;20444;-64
2021/05/09 12:43:00;;;;;;;2.30;2.10;;;26.40;44.30;;;;;;4935852;29;20771;-64
2021/05/09 12:45:28;;;;;;;4.30;2.30;;;26.40;44.40;;;;;;4935504;29;20488;-63
2021/05/09 12:48:13;;;;;;;2.50;1.87;;;26.20;44.50;;;;;;4935678;28;20522;-63
2021/05/09 12:50:56;;;;;;;3.20;2.43;;;26.30;44.50;;;;;;4936698;29;20523;-65
2021/05/09 12:53:38;;;;;;;4.73;2.20;;;26.30;44.90;;;;;;4935592;29;20917;-65
2021/05/09 12:56:32;;;;;;;4.33;1.87;;;26.40;44.10;;;;;;4935490;29;20543;-63
2021/05/09 12:59:04;;;;;;;2.40;2.20;;;26.40;44.00;;;;;;4912974;29;20452;-64
2021/05/09 13:01:32;;;;;;;3.33;2.27;;;26.40;42.00;;;;;;4935688;29;20564;-64
2021/05/09 13:03:59;;;;;;;2.50;1.93;;;26.40;41.90;;;;;;4935560;28;20445;-64
2021/05/09 13:06:25;;;;;;;3.60;2.53;;;26.50;41.20;;;;;;4935305;29;20480;-65
2021/05/09 13:08:53;;;;;;;6.50;3.00;;;26.60;41.40;;;;;;4935348;28;20449;-64
2021/05/09 13:11:20;;;;;;;1.90;1.73;;;26.60;41.00;;;;;;4935336;28;20500;-66
2021/05/09 13:13:46;;;;;;;3.10;1.77;;;26.70;40.70;;;;;;4935183;29;20456;-64
2021/05/09 13:16:12;;;;;;;2.83;2.47;;;26.70;40.10;;;;;;4935315;28;20441;-65
2021/05/09 13:18:38;;;;;;;2.13;1.60;;;26.60;39.20;;;;;;4935413;29;20456;-64
2021/05/09 13:21:05;;;;;;;2.50;1.93;;;26.50;38.20;;;;;;4935120;28;20780;-64
2021/05/09 13:23:31;;;;;;;1.80;1.60;;;26.40;38.20;;;;;;4935112;29;20453;-64
2021/05/09 13:25:58;;;;;;;1.97;1.77;;;26.30;39.00;;;;;;4934893;29;20976;-65
2021/05/09 13:28:24;;;;;;;2.33;2.13;;;26.30;39.40;;;;;;4935176;29;20452;-64
2021/05/09 13:30:51;;;;;;;2.50;1.50;;;26.40;40.10;;;;;;4935218;29;20449;-65
2021/05/09 13:33:17;;;;;;;2.87;1.80;;;26.60;40.10;;;;;;4935043;28;20449;-65
2021/05/09 13:35:43;;;;;;;1.90;1.60;;;26.80;39.30;;;;;;4934854;29;20461;-64
2021/05/09 13:38:10;;;;;;;5.17;2.07;;;26.80;38.70;;;;;;4934900;29;20448;-65
2021/05/09 13:40:36;;;;;;;2.53;1.90;;;26.90;39.20;;;;;;4935028;29;20444;-65
2021/05/09 13:43:03;;;;;;;3.30;2.23;;;26.90;39.70;;;;;;4934958;29;20460;-64
2021/05/09 13:45:30;;;;;;;5.60;4.87;;;26.90;40.90;;;;;;4934836;28;20480;-65
2021/05/09 13:47:57;;;;;;;4.10;2.47;;;27.00;40.90;;;;;;4934885;29;20544;-65
2021/05/09 13:50:23;;;;;;;2.33;1.67;;;27.10;41.00;;;;;;4935080;29;20445;-66
2021/05/09 13:52:49;;;;;;;2.37;1.60;;;27.00;40.60;;;;;;4934903;29;20499;-64
2021/05/09 13:55:16;;;;;;;1.87;1.63;;;27.10;40.30;;;;;;4934667;28;20449;-64
2021/05/09 13:57:42;;;;;;;1.60;1.33;;;27.00;40.60;;;;;;4934760;29;20856;-65
2021/05/09 14:00:09;;;;;;;2.90;1.80;;;27.00;40.70;;;;;;4934962;29;20472;-66
2021/05/09 14:02:35;;;;;;;3.00;1.60;;;27.00;41.20;;;;;;4934652;28;20801;-65
2021/05/09 14:05:02;;;;;;;1.87;1.53;;;27.00;40.80;;;;;;4934741;29;20771;-65
2021/05/09 14:07:29;;;;;;;3.43;1.90;;;27.00;40.90;;;;;;4934472;29;20449;-65
2021/05/09 14:09:55;;;;;;;3.90;2.10;;;27.10;40.90;;;;;;4933938;29;20467;-65
2021/05/09 14:12:23;;;;;;;2.10;1.77;;;27.10;41.30;;;;;;4934688;29;20453;-64
2021/05/09 14:14:53;;;;;;;1.67;1.50;;;27.20;41.20;;;;;;4934504;29;20522;-64
2021/05/09 14:17:19;;;;;;;2.80;2.03;;;27.20;41.10;;;;;;4934619;29;20485;-64
2021/05/09 14:19:46;;;;;;;2.07;1.73;;;27.30;41.30;;;;;;4934326;29;20461;-62
2021/05/09 14:22:12;;;;;;;2.50;2.00;;;27.50;41.10;;;;;;4934229;29;20921;-64
2021/05/09 14:24:38;;;;;;;2.53;2.10;;;27.60;41.00;;;;;;4934508;29;20459;-64
2021/05/09 14:27:05;;;;;;;4.27;1.80;;;27.50;40.60;;;;;;4934211;29;20495;-65
2021/05/09 14:29:32;;;;;;;1.73;1.60;;;27.50;40.50;;;;;;4934485;29;20448;-65
2021/05/09 14:31:58;;;;;;;2.40;2.00;;;27.50;40.50;;;;;;4934200;29;20452;-64
2021/05/09 14:34:24;;;;;;;3.00;1.93;;;27.50;40.70;;;;;;4934392;29;20793;-64
2021/05/09 14:36:54;;;;;;;3.27;1.77;;;27.50;40.90;;;;;;4934031;29;20448;-64
2021/05/09 14:39:20;;;;;;;1.90;1.80;;;27.40;40.90;;;;;;4934277;28;20452;-64
2021/05/09 14:41:46;;;;;;;3.03;2.10;;;27.50;40.90;;;;;;4934206;29;20472;-64
2021/05/09 14:44:12;;;;;;;2.30;2.10;;;27.50;40.80;;;;;;4934113;29;20787;-65
2021/05/09 14:46:40;;;;;;;3.00;2.10;;;27.60;40.40;;;;;;4933808;29;20491;-64
2021/05/09 14:49:07;;;;;;;2.63;1.70;;;27.70;39.50;;;;;;4933934;29;20945;-64
2021/05/09 14:51:33;;;;;;;4.13;2.20;;;27.80;39.20;;;;;;4937175;29;20461;-65
2021/05/09 14:54:00;;;;;;;2.30;2.10;;;27.80;39.20;;;;;;4934233;29;20460;-64
2021/05/09 14:56:26;;;;;;;2.03;1.63;;;27.70;39.60;;;;;;4933994;28;20449;-64
2021/05/09 14:58:52;;;;;;;3.30;2.00;;;27.80;39.80;;;;;;4934154;28;20518;-65
2021/05/09 15:01:18;;;;;;;2.90;2.60;;;27.80;40.30;;;;;;4933708;29;20813;-65
2021/05/09 15:03:45;;;;;;;3.20;1.73;;;27.80;39.20;;;;;;4933946;28;20464;-65
2021/05/09 15:06:12;;;;;;;2.47;1.93;;;27.80;39.30;;;;;;4933859;29;20511;-64
2021/05/09 15:08:38;;;;;;;2.03;1.83;;;27.80;39.70;;;;;;4933841;29;20471;-65
2021/05/09 15:11:04;;;;;;;2.93;1.93;;;27.80;39.70;;;;;;4933914;29;20456;-65
2021/05/09 15:13:30;;;;;;;1.80;1.70;;;27.80;40.00;;;;;;4933740;29;20448;-63
2021/05/09 15:15:56;;;;;;;3.63;2.20;;;27.70;39.50;;;;;;4933969;29;20550;-65
2021/05/09 15:18:22;;;;;;;1.97;1.77;;;27.70;39.00;;;;;;4933866;29;20453;-65
2021/05/09 15:20:49;;;;;;;5.00;2.37;;;27.80;39.40;;;;;;4934041;29;20496;-65
2021/05/09 15:23:15;;;;;;;2.10;1.90;;;27.70;39.20;;;;;;4936320;29;20545;-63
2021/05/09 15:25:42;;;;;;;2.73;2.50;;;27.80;39.30;;;;;;4935638;29;20488;-64
2021/05/09 15:28:08;;;;;;;5.23;2.23;;;27.80;39.40;;;;;;4936848;29;21005;-63
2021/05/09 15:30:34;;;;;;;3.13;2.73;;;27.90;39.40;;;;;;4936739;29;20983;-63
2021/05/09 15:33:00;;;;;;;3.03;1.77;;;27.80;39.70;;;;;;4936983;29;20464;-64
2021/05/09 15:35:26;;;;;;;3.63;2.60;;;27.80;39.50;;;;;;4937016;29;20444;-66
2021/05/09 15:37:53;;;;;;;2.90;2.57;;;27.70;40.10;;;;;;4936818;28;20448;-65
2021/05/09 15:40:20;;;;;;;2.73;1.90;;;27.70;40.10;;;;;;4936870;29;20484;-65
2021/05/09 15:42:46;;;;;;;2.33;2.13;;;27.70;40.30;;;;;;4936704;29;20463;-64
2021/05/09 15:45:12;;;;;;;2.43;2.23;;;27.70;40.60;;;;;;4936910;29;20456;-63
2021/05/09 15:47:38;;;;;;;2.13;1.87;;;27.80;40.80;;;;;;4936509;29;20749;-64
2021/05/09 15:50:05;;;;;;;2.47;2.00;;;27.70;40.90;;;;;;4936443;29;20468;-64
2021/05/09 15:52:32;;;;;;;2.67;2.47;;;27.70;41.00;;;;;;4936776;29;20449;-64
2021/05/09 15:54:59;;;;;;;2.60;2.07;;;27.70;41.40;;;;;;4936796;28;20448;-65
2021/05/09 15:57:25;;;;;;;2.80;2.17;;;27.50;42.20;;;;;;4936863;29;20454;-63
2021/05/09 15:59:51;;;;;;;2.63;2.17;;;27.30;42.60;;;;;;4936404;29;20453;-64
2021/05/09 16:02:18;;;;;;;7.10;2.70;;;27.10;42.90;;;;;;4936311;29;20481;-64
2021/05/09 16:04:44;;;;;;;4.57;2.67;;;27.00;43.40;;;;;;4936582;29;20455;-64
2021/05/09 16:07:12;;;;;;;2.97;2.03;;;26.80;43.90;;;;;;4936178;29;20512;-64
2021/05/09 16:09:38;;;;;;;2.73;2.33;;;26.60;44.30;;;;;;4936175;29;20468;-64
2021/05/09 16:12:05;;;;;;;2.70;2.40;;;26.60;44.40;;;;;;4936313;28;20929;-64
2021/05/09 16:14:32;;;;;;;2.50;2.20;;;26.40;44.70;;;;;;4936087;29;20457;-63
2021/05/09 16:16:58;;;;;;;2.73;2.20;;;26.40;45.00;;;;;;4936305;29;20515;-63
2021/05/09 16:19:25;;;;;;;3.00;2.10;;;26.40;45.20;;;;;;4936323;29;20456;-64
2021/05/09 16:21:51;;;;;;;3.40;1.93;;;26.40;45.10;;;;;;4935950;29;20542;-64
2021/05/09 16:24:18;;;;;;;3.60;2.67;;;26.40;45.30;;;;;;4936089;28;20444;-64